Time;durP1;ratioP1;P1;durP2;ratioP2;P2;SDS_P1;SDS_P2;PMS_P1;PMS_P2;Temp;Humidity;BMP_temperature;BMP_pressure;BME280_temperature;BME280_humidity;BME280_pressure;Samples;Min_cycle;Max_cycle;Signal;HPM_P1;HPM_P2
2022/06/25 00:02:02;;;;;;;0.90;0.90;;;23.40;78.00;;;;;;5014895;28;20221;-75
2022/06/25 00:07:12;;;;;;;0.75;0.60;;;23.40;78.00;;;;;;5030222;28;20210;-75
2022/06/25 00:09:37;;;;;;;0.75;0.75;;;23.40;78.00;;;;;;5031191;28;20246;-74
2022/06/25 00:14:48;;;;;;;0.65;0.65;;;23.40;77.90;;;;;;5031302;28;20190;-74
2022/06/25 00:17:14;;;;;;;0.80;0.80;;;23.40;77.90;;;;;;5030796;28;20180;-74
2022/06/25 00:19:40;;;;;;;0.85;0.85;;;23.40;77.90;;;;;;5030910;28;20250;-75
2022/06/25 00:22:05;;;;;;;0.88;0.70;;;23.40;77.90;;;;;;5031329;28;20221;-75
2022/06/25 00:24:31;;;;;;;1.98;0.90;;;23.40;77.80;;;;;;5031112;28;20233;-74
2022/06/25 00:26:57;;;;;;;0.73;0.70;;;23.40;77.80;;;;;;5030539;28;20187;-75
2022/06/25 00:29:22;;;;;;;0.80;0.73;;;23.40;77.80;;;;;;5030583;28;20203;-75
2022/06/25 00:31:48;;;;;;;1.95;0.80;;;23.40;77.80;;;;;;5031294;28;20191;-74
2022/06/25 00:34:15;;;;;;;1.63;0.93;;;23.40;77.80;;;;;;5031305;28;20191;-74
2022/06/25 00:36:40;;;;;;;1.73;0.70;;;23.40;77.80;;;;;;5018372;28;20181;-75
2022/06/25 00:39:06;;;;;;;1.48;0.70;;;23.40;77.70;;;;;;5034157;28;20203;-75
2022/06/25 00:41:32;;;;;;;1.40;0.80;;;23.40;77.80;;;;;;5034441;28;20269;-75
2022/06/25 00:43:58;;;;;;;0.88;0.88;;;23.40;77.70;;;;;;5034697;28;20207;-74
2022/06/25 00:46:24;;;;;;;0.93;0.90;;;23.40;77.70;;;;;;5034291;28;20651;-75
2022/06/25 00:48:50;;;;;;;1.98;0.73;;;23.40;77.80;;;;;;5033686;28;20710;-75
2022/06/25 00:51:18;;;;;;;1.08;0.90;;;23.40;77.70;;;;;;5034432;28;20187;-75
2022/06/25 00:53:45;;;;;;;1.05;0.70;;;23.40;77.70;;;;;;5034822;28;20186;-75
2022/06/25 00:56:14;;;;;;;0.77;0.70;;;23.40;77.60;;;;;;5034337;28;20183;-74
2022/06/25 00:58:44;;;;;;;0.70;0.70;;;23.40;77.60;;;;;;5034811;28;20571;-75
2022/06/25 01:01:12;;;;;;;0.75;0.75;;;23.40;77.60;;;;;;5033303;28;20183;-75
2022/06/25 01:03:38;;;;;;;0.70;0.70;;;23.40;77.60;;;;;;5033439;28;20219;-74
2022/06/25 01:06:05;;;;;;;0.98;0.70;;;23.40;77.50;;;;;;5033805;28;20686;-75
2022/06/25 01:08:34;;;;;;;1.48;0.70;;;23.40;77.50;;;;;;5033469;28;20176;-73
2022/06/25 01:11:01;;;;;;;0.70;0.70;;;23.40;77.40;;;;;;5033934;28;20190;-75
2022/06/25 01:13:30;;;;;;;0.90;0.82;;;23.40;77.30;;;;;;5033845;28;20194;-74
2022/06/25 01:15:56;;;;;;;1.55;0.70;;;23.40;77.40;;;;;;5033437;28;20183;-75
2022/06/25 01:18:22;;;;;;;0.50;0.50;;;23.40;77.40;;;;;;5034170;28;20170;-74
2022/06/25 01:20:48;;;;;;;0.85;0.85;;;23.40;77.30;;;;;;5033404;28;20207;-75
2022/06/25 01:23:14;;;;;;;1.10;0.60;;;23.30;77.20;;;;;;5033490;28;20729;-75
2022/06/25 01:25:41;;;;;;;0.60;0.60;;;23.40;77.50;;;;;;5033454;28;20186;-75
2022/06/25 01:28:08;;;;;;;0.90;0.90;;;23.40;77.30;;;;;;5032559;28;20175;-75
2022/06/25 01:30:35;;;;;;;0.80;0.80;;;23.40;77.40;;;;;;5033433;28;20207;-75
2022/06/25 01:33:07;;;;;;;1.13;0.70;;;23.30;77.20;;;;;;5033157;28;20613;-74
2022/06/25 01:35:34;;;;;;;0.93;0.68;;;23.40;77.40;;;;;;5016449;28;20734;-74
2022/06/25 01:38:02;;;;;;;1.50;0.80;;;23.40;77.40;;;;;;5032341;28;20282;-75
2022/06/25 01:40:33;;;;;;;0.75;0.70;;;23.40;77.40;;;;;;5032893;28;20231;-75
2022/06/25 01:43:01;;;;;;;1.58;0.60;;;23.40;77.40;;;;;;5032839;28;20301;-75
2022/06/25 01:45:34;;;;;;;1.73;0.90;;;23.30;77.30;;;;;;5032939;28;20184;-75
2022/06/25 01:48:02;;;;;;;1.15;0.98;;;23.30;77.20;;;;;;5031802;28;20179;-75
2022/06/25 01:50:29;;;;;;;0.80;0.80;;;23.30;77.10;;;;;;5016487;28;20203;-75
2022/06/25 01:52:55;;;;;;;0.82;0.75;;;23.30;77.10;;;;;;5032773;28;20223;-74
2022/06/25 01:55:22;;;;;;;1.02;0.80;;;23.30;77.10;;;;;;5032403;28;20219;-75
2022/06/25 01:57:50;;;;;;;0.80;0.80;;;23.30;77.10;;;;;;5032133;28;20215;-75
2022/06/25 02:00:23;;;;;;;0.85;0.85;;;23.30;77.00;;;;;;5016118;28;20207;-75
2022/06/25 02:02:54;;;;;;;0.70;0.70;;;23.30;77.10;;;;;;5032476;28;20207;-74
2022/06/25 02:05:56;;;;;;;0.60;0.60;;;23.30;77.00;;;;;;5032692;28;20183;-75
2022/06/25 02:08:13;;;;;;;0.60;0.60;;;23.30;77.00;;;;;;5031839;28;20255;-75
2022/06/25 02:10:40;;;;;;;0.95;0.70;;;23.30;77.10;;;;;;5032388;28;20259;-75
2022/06/25 02:13:06;;;;;;;0.88;0.73;;;23.30;77.10;;;;;;5032633;28;20187;-75
2022/06/25 02:15:35;;;;;;;0.95;0.68;;;23.30;77.00;;;;;;5032631;28;20191;-75
2022/06/25 02:18:02;;;;;;;0.60;0.55;;;23.30;77.10;;;;;;5031697;28;20187;-75
2022/06/25 02:20:28;;;;;;;1.42;0.60;;;23.30;77.00;;;;;;5032177;28;20213;-74
2022/06/25 02:22:56;;;;;;;0.70;0.57;;;23.30;77.00;;;;;;5032145;28;20284;-75
2022/06/25 02:25:22;;;;;;;0.70;0.70;;;23.30;77.00;;;;;;5032451;28;20191;-75
2022/06/25 02:27:47;;;;;;;0.88;0.80;;;23.30;76.90;;;;;;5031607;28;20233;-75
2022/06/25 02:30:13;;;;;;;0.57;0.57;;;23.30;76.90;;;;;;5032138;28;20249;-75
2022/06/25 02:32:39;;;;;;;1.40;0.80;;;23.30;76.90;;;;;;5031797;28;20187;-75
2022/06/25 02:35:05;;;;;;;0.95;0.63;;;23.30;76.80;;;;;;5033528;28;20179;-75
2022/06/25 02:37:31;;;;;;;0.73;0.60;;;23.30;76.80;;;;;;5031235;28;20286;-75
2022/06/25 02:39:57;;;;;;;0.55;0.50;;;23.30;76.50;;;;;;5031802;28;20248;-75
2022/06/25 02:42:24;;;;;;;0.77;0.75;;;23.30;76.50;;;;;;5031734;28;20294;-75
2022/06/25 02:44:50;;;;;;;1.25;0.88;;;23.20;76.50;;;;;;5031795;28;20179;-75
2022/06/25 02:47:16;;;;;;;0.90;0.70;;;23.30;76.50;;;;;;5028497;28;20190;-75
2022/06/25 02:49:59;;;;;;;0.85;0.85;;;23.30;76.50;;;;;;5031557;28;20199;-75
2022/06/25 02:52:25;;;;;;;0.65;0.65;;;23.30;76.60;;;;;;5031900;28;20274;-75
2022/06/25 02:54:53;;;;;;;1.55;0.80;;;23.30;76.50;;;;;;5031620;28;20187;-75
2022/06/25 03:00:08;;;;;;;0.70;0.70;;;23.30;76.50;;;;;;5031087;28;20211;-75
2022/06/25 03:02:34;;;;;;;0.75;0.70;;;23.20;76.50;;;;;;5031766;28;20207;-75
2022/06/25 03:05:02;;;;;;;0.82;0.70;;;23.30;76.50;;;;;;5031804;28;20179;-74
2022/06/25 03:07:29;;;;;;;0.73;0.73;;;23.30;76.50;;;;;;5031183;28;20313;-75
2022/06/25 03:09:55;;;;;;;0.60;0.60;;;23.30;76.50;;;;;;5031280;28;20411;-75
2022/06/25 03:12:21;;;;;;;0.82;0.70;;;23.20;76.40;;;;;;5031337;28;20191;-74
2022/06/25 03:15:00;;;;;;;0.77;0.70;;;23.20;76.40;;;;;;5031250;28;20187;-76
2022/06/25 03:17:25;;;;;;;0.80;0.80;;;23.20;76.40;;;;;;5031047;28;20538;-74
2022/06/25 03:20:10;;;;;;;0.82;0.80;;;23.20;76.40;;;;;;5031836;28;20222;-75
2022/06/25 03:22:45;;;;;;;0.73;0.73;;;23.20;76.40;;;;;;5031176;28;20218;-75
2022/06/25 03:25:12;;;;;;;0.75;0.75;;;23.20;76.40;;;;;;5031247;28;20222;-75
2022/06/25 03:27:37;;;;;;;0.82;0.70;;;23.20;76.40;;;;;;5030397;28;20221;-75
2022/06/25 03:30:10;;;;;;;0.57;0.57;;;23.20;76.40;;;;;;5031041;28;20206;-75
2022/06/25 03:32:38;;;;;;;0.50;0.50;;;23.20;76.40;;;;;;5031218;28;20182;-75
2022/06/25 03:35:29;;;;;;;0.40;0.40;;;23.20;76.40;;;;;;5031367;28;20179;-74
2022/06/25 03:38:06;;;;;;;0.65;0.63;;;23.20;76.40;;;;;;5030831;28;20248;-75
2022/06/25 03:40:31;;;;;;;0.77;0.60;;;23.20;76.40;;;;;;5031012;28;20203;-75
2022/06/25 03:42:58;;;;;;;1.35;0.82;;;23.20;76.40;;;;;;5015054;28;20218;-75
2022/06/25 03:45:25;;;;;;;0.63;0.63;;;23.20;76.40;;;;;;5031347;28;20184;-75
2022/06/25 03:47:52;;;;;;;0.60;0.60;;;23.20;76.30;;;;;;5030593;28;20179;-74
2022/06/25 03:50:21;;;;;;;1.65;0.80;;;23.20;76.40;;;;;;5030908;28;20203;-75
2022/06/25 03:52:49;;;;;;;0.70;0.70;;;23.20;76.30;;;;;;5014637;28;20183;-74
2022/06/25 03:55:16;;;;;;;0.65;0.65;;;23.20;76.30;;;;;;5031104;28;20278;-74
2022/06/25 03:57:43;;;;;;;0.65;0.65;;;23.20;76.30;;;;;;5030212;28;20654;-75
2022/06/25 04:00:22;;;;;;;1.10;0.98;;;23.20;76.30;;;;;;5030847;28;20245;-75
2022/06/25 04:02:54;;;;;;;0.73;0.70;;;23.10;76.20;;;;;;5030974;28;20295;-74
2022/06/25 04:05:30;;;;;;;0.70;0.68;;;23.20;76.30;;;;;;5031078;28;20178;-75
2022/06/25 04:08:08;;;;;;;0.60;0.60;;;23.20;76.30;;;;;;5030400;28;20685;-75
2022/06/25 04:10:34;;;;;;;0.52;0.52;;;23.20;76.00;;;;;;5032913;28;20211;-75
2022/06/25 04:13:00;;;;;;;2.10;0.70;;;23.20;75.90;;;;;;5035146;28;20188;-75
2022/06/25 04:15:26;;;;;;;2.00;0.50;;;23.20;76.00;;;;;;5034690;28;20187;-75
2022/06/25 04:17:52;;;;;;;0.50;0.50;;;23.10;75.90;;;;;;5017859;28;20198;-75
2022/06/25 04:20:17;;;;;;;1.10;0.80;;;23.20;76.00;;;;;;5034523;28;20222;-75
2022/06/25 04:22:43;;;;;;;0.70;0.70;;;23.20;75.90;;;;;;5034823;28;20207;-75
2022/06/25 04:25:09;;;;;;;1.60;0.50;;;23.10;75.70;;;;;;5034273;28;20209;-75
2022/06/25 04:30:22;;;;;;;0.70;0.70;;;23.20;75.70;;;;;;5034307;28;20205;-75
2022/06/25 04:32:51;;;;;;;1.10;0.80;;;23.20;75.80;;;;;;5034271;28;20210;-74
2022/06/25 04:35:20;;;;;;;1.58;0.88;;;23.10;75.80;;;;;;5018263;28;20281;-74
2022/06/25 04:37:48;;;;;;;1.40;0.77;;;23.20;75.80;;;;;;5034095;28;20262;-75
2022/06/25 04:40:17;;;;;;;0.70;0.70;;;23.20;76.00;;;;;;5034168;28;20207;-75
2022/06/25 04:42:46;;;;;;;0.55;0.55;;;23.20;76.00;;;;;;5034428;28;20211;-75
2022/06/25 04:45:12;;;;;;;0.80;0.60;;;23.20;75.90;;;;;;5034511;28;20179;-75
2022/06/25 04:47:58;;;;;;;0.70;0.70;;;23.10;75.70;;;;;;5034213;28;20218;-75
2022/06/25 04:50:46;;;;;;;0.70;0.68;;;23.10;75.70;;;;;;4995036;28;20211;-75
2022/06/25 04:53:13;;;;;;;0.50;0.50;;;23.20;75.80;;;;;;5034111;28;20187;-75
2022/06/25 04:55:39;;;;;;;0.85;0.50;;;23.20;75.80;;;;;;5050609;28;20183;-74
2022/06/25 04:58:05;;;;;;;1.35;0.63;;;23.20;75.90;;;;;;5033224;28;20191;-75
2022/06/25 05:00:40;;;;;;;0.73;0.73;;;23.20;75.90;;;;;;5035341;28;20254;-75
2022/06/25 05:03:09;;;;;;;0.70;0.70;;;23.20;75.90;;;;;;5033669;28;20297;-75
2022/06/25 05:05:41;;;;;;;0.70;0.70;;;23.20;75.80;;;;;;5033721;28;20217;-75
2022/06/25 05:08:10;;;;;;;0.73;0.70;;;23.20;75.90;;;;;;5033154;28;20176;-75
2022/06/25 05:10:36;;;;;;;1.15;0.70;;;23.10;75.90;;;;;;5033537;28;20203;-75
2022/06/25 05:13:14;;;;;;;1.23;0.70;;;23.20;76.00;;;;;;5033523;28;20286;-75
2022/06/25 05:15:43;;;;;;;0.70;0.70;;;23.10;75.90;;;;;;5033794;28;20179;-73
2022/06/25 05:18:12;;;;;;;0.60;0.60;;;23.10;75.90;;;;;;5032922;28;20302;-74
2022/06/25 05:20:43;;;;;;;0.80;0.68;;;23.10;75.90;;;;;;5033630;28;20237;-75
2022/06/25 05:23:10;;;;;;;0.70;0.70;;;23.10;75.90;;;;;;5032835;28;20211;-75
2022/06/25 05:25:37;;;;;;;1.02;0.80;;;23.10;75.80;;;;;;5033334;28;20282;-74
2022/06/25 05:28:04;;;;;;;0.68;0.68;;;23.10;75.90;;;;;;5032359;28;20203;-74
2022/06/25 05:30:31;;;;;;;0.60;0.60;;;23.10;75.90;;;;;;5033455;28;20237;-74
2022/06/25 05:32:58;;;;;;;0.60;0.60;;;23.10;75.80;;;;;;5033310;28;20666;-75
2022/06/25 05:35:24;;;;;;;0.70;0.70;;;23.10;75.90;;;;;;5033525;28;20190;-73
2022/06/25 05:37:51;;;;;;;0.50;0.50;;;23.10;75.90;;;;;;5032412;28;20248;-74
2022/06/25 05:40:17;;;;;;;0.88;0.88;;;23.10;76.00;;;;;;5032914;28;20779;-75
2022/06/25 05:42:43;;;;;;;0.80;0.77;;;23.10;76.10;;;;;;5032905;28;20218;-75
2022/06/25 05:45:10;;;;;;;0.82;0.82;;;23.10;76.10;;;;;;5032887;28;20562;-75
2022/06/25 05:47:36;;;;;;;1.02;0.80;;;23.10;76.20;;;;;;5032701;28;20187;-75
2022/06/25 05:50:03;;;;;;;0.70;0.70;;;23.10;76.20;;;;;;5032440;28;20218;-74
2022/06/25 05:52:29;;;;;;;0.55;0.55;;;23.10;76.10;;;;;;5032765;28;20560;-75
2022/06/25 05:54:54;;;;;;;1.60;0.80;;;23.10;76.10;;;;;;5032720;28;20191;-74
2022/06/25 05:57:20;;;;;;;0.80;0.80;;;23.10;76.00;;;;;;5033864;28;20193;-75
2022/06/25 05:59:46;;;;;;;0.73;0.70;;;23.20;76.10;;;;;;5032108;28;20299;-75
2022/06/25 06:02:12;;;;;;;0.60;0.60;;;23.10;76.00;;;;;;5024093;28;20293;-74
2022/06/25 06:04:38;;;;;;;0.80;0.80;;;23.20;76.10;;;;;;5032869;28;20270;-74
2022/06/25 06:07:05;;;;;;;0.85;0.85;;;23.20;76.00;;;;;;5032200;28;20180;-74
2022/06/25 06:09:34;;;;;;;0.70;0.70;;;23.20;76.00;;;;;;5031830;28;20223;-76
2022/06/25 06:12:00;;;;;;;0.70;0.70;;;23.10;75.90;;;;;;5032604;28;20183;-75
2022/06/25 06:14:26;;;;;;;0.50;0.50;;;23.20;76.00;;;;;;5032588;28;20187;-75
2022/06/25 06:16:52;;;;;;;0.57;0.57;;;23.20;76.00;;;;;;5032715;28;20176;-74
2022/06/25 06:19:18;;;;;;;0.65;0.65;;;23.10;75.90;;;;;;5031656;28;20325;-75
2022/06/25 06:21:44;;;;;;;0.52;0.52;;;23.20;76.00;;;;;;5012867;28;20215;-75
2022/06/25 06:24:11;;;;;;;0.70;0.70;;;23.20;75.90;;;;;;4996389;28;20247;-75
2022/06/25 06:26:37;;;;;;;0.70;0.70;;;23.10;75.90;;;;;;5013904;28;20179;-76
2022/06/25 06:29:03;;;;;;;0.50;0.50;;;23.10;75.90;;;;;;5011785;28;20298;-75
2022/06/25 06:31:30;;;;;;;0.60;0.60;;;23.20;76.00;;;;;;5012569;28;20184;-76
2022/06/25 06:33:55;;;;;;;0.73;0.65;;;23.20;76.10;;;;;;5012436;28;20230;-76
2022/06/25 06:36:21;;;;;;;0.70;0.70;;;23.10;75.90;;;;;;5012660;28;20192;-76
2022/06/25 06:38:47;;;;;;;0.60;0.60;;;23.20;76.20;;;;;;5011951;28;20242;-76
2022/06/25 06:41:13;;;;;;;0.68;0.68;;;23.10;76.00;;;;;;5012224;28;20199;-76
2022/06/25 06:43:40;;;;;;;0.57;0.57;;;23.20;76.20;;;;;;5028623;28;20250;-76
2022/06/25 06:46:06;;;;;;;0.60;0.60;;;23.20;76.30;;;;;;5028705;28;20184;-75
2022/06/25 06:48:32;;;;;;;0.70;0.70;;;23.20;76.30;;;;;;5012096;28;20227;-75
2022/06/25 06:50:58;;;;;;;0.85;0.70;;;23.20;76.40;;;;;;5012447;28;20180;-76
2022/06/25 06:53:24;;;;;;;0.60;0.60;;;23.20;76.40;;;;;;5012241;28;20615;-76
2022/06/25 06:55:50;;;;;;;0.80;0.80;;;23.20;76.30;;;;;;4995739;28;20200;-77
2022/06/25 06:58:17;;;;;;;0.93;0.70;;;23.20;76.40;;;;;;4995518;28;20206;-74
2022/06/25 07:00:43;;;;;;;0.88;0.60;;;23.20;76.40;;;;;;5012645;28;20212;-72
2022/06/25 07:03:09;;;;;;;1.23;0.70;;;23.20;77.30;;;;;;5013269;28;20219;-76
2022/06/25 07:05:35;;;;;;;2.38;0.90;;;23.20;77.10;;;;;;4995592;28;20188;-75
2022/06/25 07:08:01;;;;;;;1.65;0.68;;;23.20;77.30;;;;;;5010754;28;20278;-76
2022/06/25 07:10:27;;;;;;;0.80;0.80;;;23.20;77.40;;;;;;4995058;28;20234;-74
2022/06/25 07:12:52;;;;;;;1.17;1.00;;;23.20;77.10;;;;;;4995232;28;20184;-76
2022/06/25 07:15:18;;;;;;;0.70;0.70;;;23.20;77.10;;;;;;5013925;28;20238;-76
2022/06/25 07:17:44;;;;;;;2.78;0.85;;;23.20;77.00;;;;;;5011385;28;20187;-78
2022/06/25 07:20:10;;;;;;;1.38;0.90;;;23.20;77.00;;;;;;5027384;28;20219;-76
2022/06/25 07:22:36;;;;;;;1.77;0.80;;;23.20;76.90;;;;;;5011341;28;20219;-75
2022/06/25 07:25:04;;;;;;;0.73;0.73;;;23.30;76.70;;;;;;5044045;28;20187;-76
2022/06/25 07:27:29;;;;;;;1.17;0.77;;;23.20;76.80;;;;;;5011727;28;20192;-76
2022/06/25 07:29:55;;;;;;;0.75;0.63;;;23.20;76.80;;;;;;5030353;28;20209;-76
2022/06/25 07:32:21;;;;;;;3.22;0.95;;;23.30;77.30;;;;;;5030893;28;20187;-76
2022/06/25 07:34:47;;;;;;;1.20;0.80;;;23.30;76.50;;;;;;5014748;28;20282;-75
2022/06/25 07:37:13;;;;;;;1.52;0.70;;;23.30;76.50;;;;;;5011154;28;20188;-75
2022/06/25 07:39:39;;;;;;;1.13;0.70;;;23.30;76.50;;;;;;5043876;28;20218;-76
2022/06/25 07:42:05;;;;;;;1.10;0.90;;;23.30;76.50;;;;;;5011298;28;20188;-76
2022/06/25 07:44:31;;;;;;;1.30;1.00;;;23.30;76.50;;;;;;5011700;28;20180;-75
2022/06/25 07:46:56;;;;;;;1.58;0.85;;;23.30;76.30;;;;;;5031706;28;20218;-75
2022/06/25 07:49:22;;;;;;;0.70;0.70;;;23.30;76.30;;;;;;5031267;28;20199;-76
2022/06/25 07:51:57;;;;;;;0.77;0.77;;;23.40;76.20;;;;;;5016538;28;20222;-75
2022/06/25 07:54:25;;;;;;;0.68;0.68;;;23.30;76.00;;;;;;5016468;28;20160;-75
2022/06/25 07:56:51;;;;;;;1.15;1.00;;;23.40;76.00;;;;;;5032299;28;20187;-76
2022/06/25 07:59:17;;;;;;;1.10;1.00;;;23.40;76.00;;;;;;5014751;28;20230;-75
2022/06/25 08:01:43;;;;;;;1.92;0.88;;;23.40;75.80;;;;;;5032033;28;20274;-76
2022/06/25 08:04:09;;;;;;;1.83;0.80;;;23.30;75.60;;;;;;5051164;28;20210;-75
2022/06/25 08:06:38;;;;;;;2.08;1.20;;;23.40;75.60;;;;;;5034387;28;20557;-76
2022/06/25 08:09:07;;;;;;;1.25;1.00;;;23.40;75.60;;;;;;5035214;28;20210;-76
2022/06/25 08:11:33;;;;;;;1.50;1.00;;;23.40;75.60;;;;;;5034585;28;20183;-77
2022/06/25 08:13:59;;;;;;;1.10;0.90;;;23.40;75.60;;;;;;5034944;28;20270;-76
2022/06/25 08:16:25;;;;;;;1.17;1.00;;;23.40;75.70;;;;;;5031227;28;20251;-77
2022/06/25 08:18:52;;;;;;;1.58;1.00;;;23.30;75.30;;;;;;5028240;28;20219;-76
2022/06/25 08:21:19;;;;;;;1.23;1.00;;;23.40;75.60;;;;;;5034404;28;20198;-76
2022/06/25 08:23:45;;;;;;;1.48;0.93;;;23.40;75.60;;;;;;5034748;28;20241;-76
2022/06/25 08:26:11;;;;;;;1.30;1.00;;;23.40;75.50;;;;;;5034701;28;20206;-76
2022/06/25 08:28:36;;;;;;;0.80;0.80;;;23.40;75.40;;;;;;5034324;28;20182;-76
2022/06/25 08:31:04;;;;;;;1.20;1.10;;;23.40;75.50;;;;;;5034623;28;20207;-75
2022/06/25 08:33:29;;;;;;;1.30;1.00;;;23.40;75.50;;;;;;5034880;28;20191;-76
2022/06/25 08:35:55;;;;;;;1.40;0.95;;;23.40;75.30;;;;;;5051201;28;20187;-76
2022/06/25 08:38:21;;;;;;;0.90;0.90;;;23.40;75.20;;;;;;5050945;28;20195;-76
2022/06/25 08:40:47;;;;;;;2.20;1.15;;;23.40;75.10;;;;;;5034666;28;20301;-75
2022/06/25 08:43:13;;;;;;;1.20;1.10;;;23.50;74.80;;;;;;5035828;28;20206;-76
2022/06/25 08:45:40;;;;;;;2.15;1.10;;;23.50;74.60;;;;;;5034431;28;20191;-76
2022/06/25 08:48:31;;;;;;;1.20;1.10;;;23.50;74.60;;;;;;5035736;28;20183;-75
2022/06/25 08:50:59;;;;;;;0.98;0.98;;;23.50;74.40;;;;;;5010796;28;20218;-76
2022/06/25 08:53:31;;;;;;;2.20;1.00;;;23.50;74.30;;;;;;5017872;28;20303;-75
2022/06/25 08:55:59;;;;;;;2.38;1.20;;;23.50;74.40;;;;;;5016601;28;20313;-77
2022/06/25 08:58:25;;;;;;;1.00;1.00;;;23.50;74.50;;;;;;5033108;28;20248;-73
2022/06/25 09:00:51;;;;;;;1.00;1.00;;;23.50;74.40;;;;;;5033763;28;20286;-75
2022/06/25 09:03:17;;;;;;;1.63;1.17;;;23.50;74.10;;;;;;5033520;28;20349;-75
2022/06/25 09:05:44;;;;;;;1.75;1.40;;;23.50;74.10;;;;;;5050306;28;20230;-76
2022/06/25 09:08:13;;;;;;;1.05;1.00;;;23.60;74.20;;;;;;5016288;28;20180;-77
2022/06/25 09:10:42;;;;;;;1.10;0.98;;;23.50;74.20;;;;;;5017499;28;20207;-74
2022/06/25 09:13:11;;;;;;;1.30;1.20;;;23.50;74.20;;;;;;5050588;28;20274;-75
2022/06/25 09:15:44;;;;;;;3.05;1.20;;;23.50;74.40;;;;;;5017258;28;20192;-75
2022/06/25 09:18:19;;;;;;;1.38;1.10;;;23.50;74.40;;;;;;5049717;28;20186;-73
2022/06/25 09:21:08;;;;;;;1.23;1.13;;;23.50;74.40;;;;;;5033489;28;20253;-75
2022/06/25 09:24:00;;;;;;;0.98;0.98;;;23.50;74.40;;;;;;5034991;28;20208;-74
2022/06/25 09:26:26;;;;;;;3.92;1.40;;;23.50;74.50;;;;;;5033667;28;20194;-74
2022/06/25 09:28:52;;;;;;;2.17;1.30;;;23.60;75.40;;;;;;5049530;28;20211;-74
2022/06/25 09:31:38;;;;;;;2.67;1.25;;;23.60;75.20;;;;;;5033689;28;20190;-74
2022/06/25 09:34:07;;;;;;;1.35;1.23;;;23.60;75.20;;;;;;5033556;28;20172;-74
2022/06/25 09:36:33;;;;;;;4.18;1.60;;;23.60;75.10;;;;;;5034252;28;20183;-74
2022/06/25 09:38:59;;;;;;;2.58;1.40;;;23.60;75.30;;;;;;5032520;28;20203;-74
2022/06/25 09:41:25;;;;;;;2.22;1.30;;;23.60;75.30;;;;;;5049978;28;20187;-74
2022/06/25 09:43:51;;;;;;;2.38;1.40;;;23.60;75.40;;;;;;5033039;28;20206;-75
2022/06/25 09:46:18;;;;;;;1.88;1.30;;;23.60;75.40;;;;;;5048454;28;20179;-75
2022/06/25 09:48:44;;;;;;;1.45;1.30;;;23.60;75.50;;;;;;5032639;28;20187;-73
2022/06/25 09:51:15;;;;;;;1.45;1.20;;;23.60;75.40;;;;;;5032883;28;20194;-75
2022/06/25 09:54:00;;;;;;;3.03;1.55;;;23.60;75.40;;;;;;5033016;28;20195;-76
2022/06/25 09:56:33;;;;;;;4.40;1.45;;;23.60;75.20;;;;;;5032944;28;20266;-73
2022/06/25 09:59:00;;;;;;;1.67;1.33;;;23.60;75.30;;;;;;5032113;28;20217;-74
2022/06/25 10:01:35;;;;;;;2.15;1.40;;;23.60;75.30;;;;;;5032540;28;20274;-75
2022/06/25 10:04:03;;;;;;;3.22;1.42;;;23.60;75.30;;;;;;5032446;28;20287;-75
2022/06/25 10:06:35;;;;;;;2.10;1.42;;;23.60;75.30;;;;;;5032163;28;20185;-75
2022/06/25 10:09:04;;;;;;;1.30;1.20;;;23.50;75.20;;;;;;5031787;28;20290;-75
2022/06/25 10:11:32;;;;;;;2.53;1.27;;;23.60;75.20;;;;;;5033332;28;20179;-76
2022/06/25 10:13:58;;;;;;;2.65;1.55;;;23.50;74.90;;;;;;5033026;28;20187;-76
2022/06/25 10:16:26;;;;;;;1.48;1.35;;;23.50;75.10;;;;;;5033347;28;20647;-75
2022/06/25 10:18:53;;;;;;;2.15;1.42;;;23.50;74.80;;;;;;5032812;28;20222;-75
2022/06/25 10:21:22;;;;;;;1.65;1.23;;;23.50;74.70;;;;;;5048296;28;20214;-75
2022/06/25 10:23:56;;;;;;;2.42;1.30;;;23.60;74.80;;;;;;5019080;28;20242;-75
2022/06/25 10:26:24;;;;;;;2.67;1.30;;;23.60;74.90;;;;;;5012119;28;20191;-75
2022/06/25 10:28:50;;;;;;;2.15;1.38;;;23.60;74.80;;;;;;5011184;28;20177;-77
2022/06/25 10:31:19;;;;;;;2.47;1.40;;;23.60;74.90;;;;;;5011893;28;20211;-75
2022/06/25 10:33:59;;;;;;;1.60;1.33;;;23.60;74.80;;;;;;5011644;28;20644;-75
2022/06/25 10:36:44;;;;;;;1.35;1.17;;;23.60;74.90;;;;;;5011927;28;20233;-75
2022/06/25 10:39:25;;;;;;;1.98;1.10;;;23.50;75.00;;;;;;4994821;28;20291;-75
2022/06/25 10:45:15;;;;;;;1.63;1.30;;;23.50;74.80;;;;;;5011681;28;20203;-75
2022/06/25 10:47:50;;;;;;;1.58;1.17;;;23.50;74.80;;;;;;5011504;28;20258;-75
2022/06/25 10:50:22;;;;;;;1.30;1.20;;;23.50;74.90;;;;;;5011089;28;20211;-75
2022/06/25 10:53:03;;;;;;;2.05;1.13;;;23.50;75.50;;;;;;4995360;28;20331;-75
2022/06/25 10:55:35;;;;;;;3.63;1.40;;;23.60;75.00;;;;;;4994990;28;20195;-77
2022/06/25 10:58:23;;;;;;;1.65;1.25;;;23.60;74.90;;;;;;5011459;28;20275;-75
2022/06/25 11:01:02;;;;;;;1.08;1.05;;;23.60;74.50;;;;;;5011345;28;20210;-75
2022/06/25 11:03:28;;;;;;;2.90;1.23;;;23.60;74.40;;;;;;5011101;28;20285;-75
2022/06/25 11:05:59;;;;;;;1.75;1.10;;;23.60;74.60;;;;;;4994669;28;20663;-75
2022/06/25 11:08:36;;;;;;;2.60;1.27;;;23.60;74.60;;;;;;5010686;28;20192;-75
2022/06/25 11:11:06;;;;;;;1.52;1.25;;;23.60;74.50;;;;;;5011227;28;20314;-77
2022/06/25 11:13:32;;;;;;;1.60;1.40;;;23.60;74.60;;;;;;5011148;28;20180;-75
2022/06/25 11:15:58;;;;;;;1.33;1.23;;;23.60;74.60;;;;;;5011141;28;20199;-76
2022/06/25 11:18:24;;;;;;;2.65;1.40;;;23.60;74.40;;;;;;5010360;28;20192;-75
2022/06/25 11:20:51;;;;;;;2.53;1.50;;;23.60;74.40;;;;;;5010244;28;20215;-75
2022/06/25 11:23:17;;;;;;;1.10;1.10;;;23.60;74.60;;;;;;5011101;28;20711;-74
2022/06/25 11:28:49;;;;;;;1.27;1.08;;;23.60;74.50;;;;;;5010420;28;20184;-76
2022/06/25 11:31:21;;;;;;;1.48;0.98;;;23.60;74.40;;;;;;5010938;28;20180;-77
2022/06/25 11:33:50;;;;;;;2.63;1.40;;;23.60;74.20;;;;;;5010811;28;20631;-75
2022/06/25 11:36:17;;;;;;;1.30;1.17;;;23.60;74.30;;;;;;5010713;28;20188;-75
2022/06/25 11:38:55;;;;;;;2.40;1.40;;;23.60;74.40;;;;;;5010325;28;20287;-74
2022/06/25 11:41:29;;;;;;;1.33;1.10;;;23.60;74.30;;;;;;5010811;28;20188;-72
2022/06/25 11:44:03;;;;;;;1.30;1.20;;;23.70;74.60;;;;;;5010673;28;20239;-75
2022/06/25 11:46:29;;;;;;;2.47;1.30;;;23.60;74.20;;;;;;5010821;28;20210;-73
2022/06/25 11:48:57;;;;;;;3.63;1.25;;;23.60;74.20;;;;;;5010129;28;20297;-75
2022/06/25 11:51:25;;;;;;;1.42;1.20;;;23.60;74.20;;;;;;5010787;28;20261;-75
2022/06/25 11:53:53;;;;;;;1.40;1.30;;;23.60;74.20;;;;;;5010812;28;20195;-75
2022/06/25 11:56:19;;;;;;;1.67;1.30;;;23.60;74.00;;;;;;5010225;28;20194;-75
2022/06/25 11:58:45;;;;;;;1.77;1.50;;;23.60;73.90;;;;;;5009979;28;20274;-76
2022/06/25 12:01:12;;;;;;;1.25;1.20;;;23.60;74.00;;;;;;5010766;28;20230;-75
2022/06/25 12:03:38;;;;;;;2.25;1.20;;;23.60;74.00;;;;;;5025551;28;20246;-75
2022/06/25 12:06:05;;;;;;;1.40;1.30;;;23.70;73.90;;;;;;5030035;28;20193;-73
2022/06/25 12:08:32;;;;;;;1.17;1.00;;;23.60;73.60;;;;;;5030009;28;20279;-73
2022/06/25 12:11:01;;;;;;;1.33;1.23;;;23.60;73.60;;;;;;5030418;28;20171;-75
2022/06/25 12:13:31;;;;;;;2.45;1.00;;;23.70;73.70;;;;;;5030388;28;20253;-72
2022/06/25 12:16:03;;;;;;;1.30;1.20;;;23.60;73.60;;;;;;5030206;28;20195;-76
2022/06/25 12:18:56;;;;;;;2.30;1.33;;;23.60;73.60;;;;;;5029509;28;20191;-75
2022/06/25 12:21:22;;;;;;;1.30;1.20;;;23.70;73.50;;;;;;5012003;28;20658;-75
2022/06/25 12:23:59;;;;;;;1.42;1.30;;;23.60;73.50;;;;;;5019279;28;20248;-75
2022/06/25 12:26:31;;;;;;;1.75;1.25;;;23.70;73.50;;;;;;5010432;28;20180;-75
2022/06/25 12:29:17;;;;;;;1.45;1.10;;;23.70;73.50;;;;;;4994604;28;20203;-75
2022/06/25 12:32:01;;;;;;;1.55;1.13;;;23.60;73.10;;;;;;5012630;28;20710;-75
2022/06/25 12:34:27;;;;;;;1.63;1.13;;;23.70;73.20;;;;;;4998266;28;20175;-75
2022/06/25 12:36:55;;;;;;;1.55;1.45;;;23.70;73.30;;;;;;4997664;28;20184;-75
2022/06/25 12:39:35;;;;;;;1.38;1.23;;;23.60;73.20;;;;;;5013091;28;20204;-75
2022/06/25 12:42:13;;;;;;;3.13;1.20;;;23.70;73.20;;;;;;4997554;28;20253;-75
2022/06/25 12:44:44;;;;;;;1.45;1.35;;;23.70;73.50;;;;;;5014002;28;20564;-72
2022/06/25 12:47:16;;;;;;;1.30;1.20;;;23.70;73.50;;;;;;4997721;28;20233;-75
2022/06/25 12:49:46;;;;;;;1.60;1.10;;;23.60;73.40;;;;;;5012976;28;20210;-76
2022/06/25 12:52:16;;;;;;;2.20;1.10;;;23.70;73.30;;;;;;5013623;28;20191;-75
2022/06/25 12:54:46;;;;;;;1.38;1.30;;;23.60;73.20;;;;;;4997213;28;20192;-74
2022/06/25 12:57:39;;;;;;;1.17;1.10;;;23.60;73.20;;;;;;5013655;28;20188;-72
2022/06/25 13:00:25;;;;;;;2.67;1.30;;;23.70;73.20;;;;;;5012177;28;20216;-74
2022/06/25 13:02:52;;;;;;;1.35;1.10;;;23.60;73.00;;;;;;4997216;28;20253;-75
2022/06/25 13:05:19;;;;;;;1.20;1.10;;;23.70;73.00;;;;;;5013524;28;20196;-75
2022/06/25 13:07:46;;;;;;;1.48;1.38;;;23.70;73.00;;;;;;4997074;28;20180;-75
2022/06/25 13:10:14;;;;;;;1.17;1.08;;;23.70;73.20;;;;;;5013857;28;20200;-75
2022/06/25 13:12:40;;;;;;;1.42;1.33;;;23.60;73.00;;;;;;5013540;28;20192;-76
2022/06/25 13:15:09;;;;;;;1.20;1.10;;;23.70;73.20;;;;;;5013620;28;20283;-74